Terminal Aerodrome Forecast
Issued by NWS

Home | Current Version | Previous Version | Text Only | Print | Product List | Glossary On
Versions: 1 2 3 4 5 6 7 8 9 10 11 12 13 14
000
FTUS41 KBOX 251735
TAFBAF
TAF
KBAF 251735Z 2518/2618 27006KT P6SM SCT050
     FM252100 23005KT P6SM SCT050
     FM260300 20005KT P6SM BKN030 OVC050
     FM261200 28009G18KT P6SM BKN035=

USA.gov is the U.S. government's official web portal to all federal, state and local government web resources and services.